Time;durP1;ratioP1;P1;durP2;ratioP2;P2;SDS_P1;SDS_P2;PMS_P1;PMS_P2;Temp;Humidity;BMP_temperature;BMP_pressure;BME280_temperature;BME280_humidity;BME280_pressure;Samples;Min_cycle;Max_cycle;Signal;HPM_P1;HPM_P2
2022/11/22 00:01:00;;;;;;;;;;;-0.30;93.50;;;;;;5022140;28;997;-87
2022/11/22 00:03:28;;;;;;;;;;;-0.30;93.10;;;;;;5024548;28;1183;-86
2022/11/22 00:05:56;;;;;;;;;;;-0.10;93.20;;;;;;5022967;28;990;-86
2022/11/22 00:08:23;;;;;;;;;;;-0.20;93.10;;;;;;5021424;28;1899;-87
2022/11/22 00:10:51;;;;;;;;;;;-0.20;93.40;;;;;;5021211;28;1667;-86
2022/11/22 00:13:19;;;;;;;;;;;-0.30;92.90;;;;;;5020145;28;1731;-85
2022/11/22 00:15:58;;;;;;;;;;;-0.20;93.30;;;;;;5037525;28;1421;-86
2022/11/22 00:18:26;;;;;;;;;;;-0.30;93.80;;;;;;5025142;28;1362;-87
2022/11/22 00:20:54;;;;;;;;;;;0.00;93.80;;;;;;5010002;28;1541;-86
2022/11/22 00:23:21;;;;;;;;;;;0.10;93.30;;;;;;5022259;28;1531;-87
2022/11/22 00:25:49;;;;;;;;;;;0.20;93.50;;;;;;5021627;28;1195;-88
2022/11/22 00:28:17;;;;;;;;;;;0.40;93.10;;;;;;5021088;28;1894;-88
2022/11/22 00:30:45;;;;;;;;;;;0.00;92.60;;;;;;5022670;28;1669;-88
2022/11/22 00:33:18;;;;;;;;;;;0.00;92.80;;;;;;5021899;28;1739;-88
2022/11/22 00:35:46;;;;;;;;;;;0.00;93.00;;;;;;5020755;28;1584;-88
2022/11/22 00:38:14;;;;;;;;;;;-0.10;93.10;;;;;;5021045;28;1667;-91
2022/11/22 00:40:42;;;;;;;;;;;0.00;93.20;;;;;;5022802;28;1061;-86
2022/11/22 00:43:10;;;;;;;;;;;0.00;93.50;;;;;;5022452;28;1519;-87
2022/11/22 00:45:39;;;;;;;;;;;0.10;93.00;;;;;;5022737;28;1381;-88
2022/11/22 00:48:07;;;;;;;;;;;0.10;93.00;;;;;;5021093;28;1988;-87
2022/11/22 00:50:36;;;;;;;;;;;0.00;92.80;;;;;;5021777;28;966;-88
2022/11/22 00:53:04;;;;;;;;;;;0.10;93.30;;;;;;5023124;28;1037;-89
2022/11/22 00:55:32;;;;;;;;;;;0.00;92.90;;;;;;5021557;28;1536;-88
2022/11/22 00:57:59;;;;;;;;;;;0.00;93.00;;;;;;5022008;28;1304;-88
2022/11/22 01:00:27;;;;;;;;;;;0.10;92.80;;;;;;5022378;28;1510;-88
2022/11/22 01:02:55;;;;;;;;;;;0.10;92.90;;;;;;5020477;28;1735;-87
2022/11/22 01:05:23;;;;;;;;;;;0.30;92.50;;;;;;5021998;28;1080;-85
2022/11/22 01:07:53;;;;;;;;;;;0.00;92.70;;;;;;5021338;28;1985;-88
2022/11/22 01:10:21;;;;;;;;;;;0.10;93.40;;;;;;5021429;28;1048;-87
2022/11/22 01:12:49;;;;;;;;;;;0.20;93.30;;;;;;5021161;28;1513;-87
2022/11/22 01:15:33;;;;;;;;;;;0.00;93.00;;;;;;5020944;28;1217;-86
2022/11/22 01:18:00;;;;;;;;;;;0.00;93.60;;;;;;5018398;28;1352;-88
2022/11/22 01:20:29;;;;;;;;;;;0.20;93.40;;;;;;5016635;28;977;-86
2022/11/22 01:22:58;;;;;;;;;;;0.00;93.60;;;;;;5003831;28;1016;-87
2022/11/22 01:25:26;;;;;;;;;;;0.50;93.50;;;;;;5038738;28;1073;-88
2022/11/22 01:27:54;;;;;;;;;;;0.00;93.40;;;;;;5022907;28;1898;-87
2022/11/22 01:30:21;;;;;;;;;;;-0.10;93.50;;;;;;5020833;28;1385;-87
2022/11/22 01:32:49;;;;;;;;;;;0.00;93.50;;;;;;5013834;28;1542;-88
2022/11/22 01:35:17;;;;;;;;;;;0.10;93.30;;;;;;5019546;28;1524;-89
2022/11/22 01:37:44;;;;;;;;;;;0.10;93.60;;;;;;5020879;28;1347;-88
2022/11/22 01:40:14;;;;;;;;;;;0.10;93.40;;;;;;5020090;28;1057;-89
2022/11/22 01:42:42;;;;;;;;;;;0.10;93.50;;;;;;5020163;28;1502;-89
2022/11/22 01:45:29;;;;;;;;;;;0.00;93.60;;;;;;5020035;28;1418;-87
2022/11/22 01:47:57;;;;;;;;;;;-0.10;94.00;;;;;;5021543;28;1997;-87
2022/11/22 01:50:25;;;;;;;;;;;0.10;94.00;;;;;;5021401;28;1527;-88
2022/11/22 01:52:54;;;;;;;;;;;0.30;93.80;;;;;;5019360;28;966;-87
2022/11/22 01:55:23;;;;;;;;;;;0.00;93.60;;;;;;5021378;28;1631;-88
2022/11/22 01:57:51;;;;;;;;;;;0.10;93.90;;;;;;5021710;28;1391;-87
2022/11/22 02:00:19;;;;;;;;;;;0.10;93.70;;;;;;5022532;28;1033;-87
2022/11/22 02:02:50;;;;;;;;;;;0.20;93.50;;;;;;5019621;28;1121;-89
2022/11/22 02:05:19;;;;;;;;;;;0.40;93.80;;;;;;5017760;28;1687;-86
2022/11/22 02:07:49;;;;;;;;;;;0.20;94.00;;;;;;5018020;28;1987;-87
2022/11/22 02:10:19;;;;;;;;;;;0.00;94.10;;;;;;5018881;28;1540;-88
2022/11/22 02:12:50;;;;;;;;;;;0.00;94.30;;;;;;5018726;28;978;-88
2022/11/22 02:17:59;;;;;;;;;;;0.20;94.20;;;;;;5379090;22;1761;-88
2022/11/22 02:20:27;;;;;;;;;;;0.20;93.90;;;;;;5072226;28;1574;-88
2022/11/22 02:22:55;;;;;;;;;;;0.20;93.80;;;;;;5066299;28;1680;-88
2022/11/22 02:25:30;;;;;;;;;;;0.20;94.00;;;;;;5047791;28;1087;-89
2022/11/22 02:27:59;;;;;;;;;;;0.10;94.50;;;;;;5047676;28;1898;-89
2022/11/22 02:30:27;;;;;;;;;;;0.20;94.00;;;;;;5046054;28;1048;-89
2022/11/22 02:32:54;;;;;;;;;;;0.10;94.00;;;;;;5044680;28;1032;-90
2022/11/22 02:35:23;;;;;;;;;;;0.20;94.10;;;;;;5045862;28;1670;-89
2022/11/22 02:37:52;;;;;;;;;;;0.30;93.80;;;;;;5045203;28;1672;-88
2022/11/22 02:40:20;;;;;;;;;;;0.60;94.00;;;;;;5044608;28;1244;-90
2022/11/22 02:42:48;;;;;;;;;;;0.40;94.20;;;;;;5044881;28;1585;-89
2022/11/22 02:45:17;;;;;;;;;;;0.20;94.20;;;;;;5044678;28;1145;-89
2022/11/22 02:47:45;;;;;;;;;;;0.40;93.90;;;;;;5044908;28;1981;-89
2022/11/22 02:50:13;;;;;;;;;;;0.60;93.70;;;;;;5044598;28;1202;-87
2022/11/22 02:52:41;;;;;;;;;;;0.40;93.60;;;;;;5050654;28;1039;-89
2022/11/22 02:55:09;;;;;;;;;;;0.60;93.50;;;;;;5057258;28;1028;-88
2022/11/22 02:57:36;;;;;;;;;;;0.30;93.70;;;;;;5044438;28;1671;-89
2022/11/22 03:00:04;;;;;;;;;;;0.20;94.10;;;;;;5043041;28;1543;-88
2022/11/22 03:02:34;;;;;;;;;;;0.30;94.20;;;;;;5042423;28;1696;-86
2022/11/22 03:05:01;;;;;;;;;;;0.50;94.40;;;;;;5042446;28;1025;-86
2022/11/22 03:07:29;;;;;;;;;;;0.30;94.10;;;;;;5043090;28;1562;-88
2022/11/22 03:09:59;;;;;;;;;;;0.30;93.50;;;;;;5055052;28;1898;-86
2022/11/22 03:12:27;;;;;;;;;;;0.10;93.90;;;;;;5056814;28;1586;-90
2022/11/22 03:14:55;;;;;;;;;;;0.20;94.30;;;;;;5049210;28;1396;-91
2022/11/22 03:17:22;;;;;;;;;;;0.30;94.00;;;;;;5049273;28;1064;-90
2022/11/22 03:19:51;;;;;;;;;;;0.20;93.80;;;;;;5047309;28;1285;-89
2022/11/22 03:22:19;;;;;;;;;;;0.20;94.40;;;;;;5046452;28;1040;-89
2022/11/22 03:24:47;;;;;;;;;;;0.40;94.00;;;;;;5044211;28;1025;-88
2022/11/22 03:27:14;;;;;;;;;;;0.40;93.80;;;;;;5044478;28;993;-89
2022/11/22 03:29:42;;;;;;;;;;;0.20;93.90;;;;;;5043855;28;1995;-89
2022/11/22 03:32:10;;;;;;;;;;;0.30;93.70;;;;;;5045235;28;1005;-89
2022/11/22 03:34:37;;;;;;;;;;;0.40;93.50;;;;;;5043174;28;1530;-88
2022/11/22 03:37:06;;;;;;;;;;;0.40;93.70;;;;;;5041427;28;1061;-89
2022/11/22 03:39:34;;;;;;;;;;;0.30;93.90;;;;;;5048662;28;1693;-90
2022/11/22 03:42:02;;;;;;;;;;;0.50;93.40;;;;;;5043340;28;1029;-89
2022/11/22 03:44:30;;;;;;;;;;;0.30;93.30;;;;;;5047579;28;1536;-89
2022/11/22 03:46:57;;;;;;;;;;;0.70;93.90;;;;;;5047831;28;1921;-88
2022/11/22 03:49:25;;;;;;;;;;;0.30;93.90;;;;;;5047695;28;1914;-87
2022/11/22 03:51:53;;;;;;;;;;;0.50;93.90;;;;;;5057111;28;2066;-89
2022/11/22 03:54:22;;;;;;;;;;;0.20;93.50;;;;;;5058690;28;1681;-89
2022/11/22 03:56:49;;;;;;;;;;;0.30;94.20;;;;;;5047838;28;1460;-88
2022/11/22 03:59:17;;;;;;;;;;;0.40;93.70;;;;;;5059981;28;1432;-89
2022/11/22 04:01:45;;;;;;;;;;;0.40;93.80;;;;;;5053774;28;1032;-90
2022/11/22 04:04:13;;;;;;;;;;;0.60;93.70;;;;;;5050880;28;1606;-90
2022/11/22 04:06:42;;;;;;;;;;;0.50;93.80;;;;;;5048933;28;1476;-87
2022/11/22 04:09:09;;;;;;;;;;;0.30;94.20;;;;;;5045558;28;1894;-87
2022/11/22 04:11:39;;;;;;;;;;;0.40;94.10;;;;;;5059636;28;968;-88
2022/11/22 04:16:50;;;;;;;;;;;0.30;94.10;;;;;;5027453;28;1300;-87
2022/11/22 04:19:18;;;;;;;;;;;0.10;94.30;;;;;;5075497;28;1528;-88
2022/11/22 04:21:45;;;;;;;;;;;0.30;94.60;;;;;;5069066;28;1020;-89
2022/11/22 04:26:59;;;;;;;;;;;0.50;94.20;;;;;;5040681;28;1305;-90
2022/11/22 04:29:27;;;;;;;;;;;0.40;94.20;;;;;;5046585;28;1874;-89
2022/11/22 04:34:41;;;;;;;;;;;0.40;94.20;;;;;;5055573;28;1562;-88
2022/11/22 04:37:08;;;;;;;;;;;0.50;94.40;;;;;;5042301;28;1458;-88
2022/11/22 04:39:36;;;;;;;;;;;0.70;94.40;;;;;;5041274;28;1296;-89
2022/11/22 04:44:47;;;;;;;;;;;0.60;94.30;;;;;;5019335;28;1197;-88
2022/11/22 04:47:57;;;;;;;;;;;0.50;94.20;;;;;;5041003;28;1456;-88
2022/11/22 04:52:52;;;;;;;;;;;0.60;94.70;;;;;;5041164;28;1914;-87
2022/11/22 04:52:55;;;;;;;;;;;0.50;94.50;;;;;;5043197;28;1241;-89
2022/11/22 04:55:23;;;;;;;;;;;0.80;94.60;;;;;;5043165;28;1032;-88
2022/11/22 04:57:52;;;;;;;;;;;0.70;94.20;;;;;;5045080;28;1355;-90
2022/11/22 05:00:27;;;;;;;;;;;0.80;94.20;;;;;;5056617;28;1606;-86
2022/11/22 05:02:57;;;;;;;;;;;0.80;94.40;;;;;;5049099;28;1375;-88
2022/11/22 05:05:25;;;;;;;;;;;0.70;94.10;;;;;;5060206;28;1655;-87
2022/11/22 05:07:56;;;;;;;;;;;0.80;94.40;;;;;;5066046;28;1308;-87
2022/11/22 05:10:23;;;;;;;;;;;0.90;94.30;;;;;;5068300;28;1879;-87
2022/11/22 05:12:55;;;;;;;;;;;0.80;94.10;;;;;;5048322;28;1041;-88
2022/11/22 05:15:23;;;;;;;;;;;0.80;94.50;;;;;;5041731;28;961;-87
2022/11/22 05:17:50;;;;;;;;;;;0.90;93.90;;;;;;5041268;28;1509;-87
2022/11/22 05:20:18;;;;;;;;;;;1.10;94.00;;;;;;5040695;28;1466;-87
2022/11/22 05:25:31;;;;;;;;;;;0.80;94.10;;;;;;5054056;28;1523;-87
2022/11/22 05:28:01;;;;;;;;;;;0.80;94.30;;;;;;5072345;28;1265;-87
2022/11/22 05:30:29;;;;;;;;;;;1.00;94.30;;;;;;5058625;28;1898;-88
2022/11/22 05:32:57;;;;;;;;;;;1.30;94.00;;;;;;5051747;28;1507;-88
2022/11/22 05:35:25;;;;;;;;;;;1.30;93.60;;;;;;5046408;28;1364;-87
2022/11/22 05:37:52;;;;;;;;;;;1.10;94.10;;;;;;5036950;28;1276;-87
2022/11/22 05:40:30;;;;;;;;;;;0.90;94.00;;;;;;5036608;28;1423;-88
2022/11/22 05:43:01;;;;;;;;;;;0.60;94.30;;;;;;5042050;28;1121;-89
2022/11/22 05:45:33;;;;;;;;;;;0.90;94.20;;;;;;5040599;28;906;-89
2022/11/22 05:48:02;;;;;;;;;;;1.20;94.40;;;;;;5037138;28;1419;-88
2022/11/22 05:50:30;;;;;;;;;;;1.20;94.30;;;;;;5038086;28;1956;-88
2022/11/22 05:53:00;;;;;;;;;;;1.30;94.90;;;;;;5039545;28;1052;-87
2022/11/22 05:55:27;;;;;;;;;;;1.20;94.10;;;;;;5038976;28;1711;-86
2022/11/22 05:57:55;;;;;;;;;;;1.10;94.10;;;;;;5039171;28;1355;-88
2022/11/22 06:00:23;;;;;;;;;;;1.00;94.10;;;;;;5042560;28;1319;-87
2022/11/22 06:02:52;;;;;;;;;;;1.30;94.10;;;;;;5043700;28;1033;-87
2022/11/22 06:05:20;;;;;;;;;;;1.20;94.40;;;;;;5047271;28;1573;-86
2022/11/22 06:07:47;;;;;;;;;;;1.20;94.30;;;;;;5058965;28;1362;-88
2022/11/22 06:10:16;;;;;;;;;;;1.40;94.70;;;;;;5049617;28;1910;-86
2022/11/22 06:12:43;;;;;;;;;;;0.90;94.60;;;;;;5042798;28;1307;-86
2022/11/22 06:15:11;;;;;;;;;;;1.30;94.90;;;;;;5044200;28;1381;-86
2022/11/22 06:17:39;;;;;;;;;;;1.30;95.20;;;;;;5049351;28;1718;-86
2022/11/22 06:20:09;;;;;;;;;;;1.10;95.30;;;;;;5044473;28;1185;-86
2022/11/22 06:22:36;;;;;;;;;;;1.20;95.80;;;;;;5041989;28;1063;-86
2022/11/22 06:25:05;;;;;;;;;;;1.30;95.20;;;;;;5042277;28;1448;-90
2022/11/22 06:27:32;;;;;;;;;;;1.10;96.30;;;;;;5042996;28;1017;-87
2022/11/22 06:30:00;;;;;;;;;;;1.30;96.80;;;;;;5043007;28;1909;-87
2022/11/22 06:32:28;;;;;;;;;;;1.10;96.40;;;;;;5043139;28;1447;-85
2022/11/22 06:34:55;;;;;;;;;;;1.20;97.00;;;;;;5048140;28;1448;-85
2022/11/22 06:37:24;;;;;;;;;;;1.20;97.20;;;;;;5066394;28;1305;-84
2022/11/22 06:39:52;;;;;;;;;;;1.50;97.40;;;;;;5046413;28;1385;-84
2022/11/22 06:42:20;;;;;;;;;;;1.40;97.00;;;;;;5048657;28;1235;-83
2022/11/22 06:44:47;;;;;;;;;;;1.30;97.20;;;;;;5058344;28;1641;-83
2022/11/22 06:47:16;;;;;;;;;;;1.30;97.30;;;;;;5051360;28;1074;-83
2022/11/22 06:49:44;;;;;;;;;;;1.20;97.30;;;;;;5041909;28;1352;-84
2022/11/22 06:52:11;;;;;;;;;;;1.10;97.30;;;;;;5042543;28;1952;-84
2022/11/22 06:54:40;;;;;;;;;;;1.40;97.30;;;;;;5043131;28;1041;-84
2022/11/22 06:57:08;;;;;;;;;;;1.30;97.50;;;;;;5048195;28;969;-83
2022/11/22 06:59:36;;;;;;;;;;;1.30;97.10;;;;;;5055030;28;1375;-83
2022/11/22 07:02:04;;;;;;;;;;;1.40;97.30;;;;;;5051772;28;1100;-84
2022/11/22 07:04:33;;;;;;;;;;;1.40;97.50;;;;;;5052335;28;1076;-84
2022/11/22 07:07:03;;;;;;;;;;;1.50;97.40;;;;;;5058602;28;993;-84
2022/11/22 07:09:31;;;;;;;;;;;1.40;97.80;;;;;;5055690;28;1490;-85
2022/11/22 07:12:00;;;;;;;;;;;1.20;97.30;;;;;;5049201;28;1984;-84
2022/11/22 07:14:28;;;;;;;;;;;1.40;97.80;;;;;;5042122;28;2070;-86
2022/11/22 07:16:56;;;;;;;;;;;1.40;97.40;;;;;;5043730;28;1554;-83
2022/11/22 07:19:23;;;;;;;;;;;1.50;97.90;;;;;;5041287;28;1988;-85
2022/11/22 07:21:51;;;;;;;;;;;1.60;97.50;;;;;;5050959;28;1021;-84
2022/11/22 07:24:19;;;;;;;;;;;1.40;98.00;;;;;;5054157;28;1069;-84
2022/11/22 07:26:50;;;;;;;;;;;1.50;97.80;;;;;;5053412;28;1529;-85
2022/11/22 07:29:19;;;;;;;;;;;1.70;97.80;;;;;;5041960;28;1348;-84
2022/11/22 07:31:47;;;;;;;;;;;1.70;98.30;;;;;;5040304;28;2085;-82
2022/11/22 07:34:14;;;;;;;;;;;1.40;97.50;;;;;;5045263;28;1524;-84
2022/11/22 07:36:42;;;;;;;;;;;1.20;97.60;;;;;;5056488;28;1257;-83
2022/11/22 07:39:11;;;;;;;;;;;1.20;98.00;;;;;;5048869;28;1496;-84
2022/11/22 07:41:38;;;;;;;;;;;1.40;98.10;;;;;;5050727;28;981;-84
2022/11/22 07:44:06;;;;;;;;;;;1.20;97.60;;;;;;5048325;28;1092;-84
2022/11/22 07:46:35;;;;;;;;;;;1.40;97.60;;;;;;5059183;28;1977;-83
2022/11/22 07:49:03;;;;;;;;;;;1.60;97.50;;;;;;5046318;28;1362;-83
2022/11/22 07:51:30;;;;;;;;;;;1.40;97.70;;;;;;5041733;28;1976;-83
2022/11/22 07:53:58;;;;;;;;;;;1.30;97.20;;;;;;5055102;28;2058;-85
2022/11/22 07:56:26;;;;;;;;;;;1.40;97.70;;;;;;5052661;28;2031;-84
2022/11/22 07:58:54;;;;;;;;;;;1.40;97.60;;;;;;5048603;28;1424;-84
2022/11/22 08:01:23;;;;;;;;;;;1.30;97.60;;;;;;5041546;28;1173;-83
2022/11/22 08:03:56;;;;;;;;;;;1.40;97.90;;;;;;5040326;28;1531;-84
2022/11/22 08:06:24;;;;;;;;;;;1.50;97.60;;;;;;5052197;28;1088;-84
2022/11/22 08:08:51;;;;;;;;;;;1.50;97.20;;;;;;5054008;28;1403;-86
2022/11/22 08:11:30;;;;;;;;;;;1.80;97.40;;;;;;5052048;28;1890;-84
2022/11/22 08:14:03;;;;;;;;;;;1.30;97.40;;;;;;5064939;28;1095;-84
2022/11/22 08:16:31;;;;;;;;;;;1.50;96.90;;;;;;5061783;28;1708;-86
2022/11/22 08:19:00;;;;;;;;;;;1.60;97.40;;;;;;5060462;28;1399;-85
2022/11/22 08:21:28;;;;;;;;;;;1.60;97.40;;;;;;5056401;28;1486;-86
2022/11/22 08:23:57;;;;;;;;;;;1.80;97.00;;;;;;5052938;28;1445;-86
2022/11/22 08:26:26;;;;;;;;;;;1.50;97.30;;;;;;5054674;28;1937;-85
2022/11/22 08:28:53;;;;;;;;;;;1.60;97.40;;;;;;5040567;28;2000;-88
2022/11/22 08:31:21;;;;;;;;;;;1.80;96.90;;;;;;5045819;28;1882;-86
2022/11/22 08:33:52;;;;;;;;;;;1.60;97.20;;;;;;5043265;28;1482;-85
2022/11/22 08:36:21;;;;;;;;;;;1.60;97.00;;;;;;5053619;28;1131;-87
2022/11/22 08:38:49;;;;;;;;;;;1.70;97.60;;;;;;5074770;28;1365;-87
2022/11/22 08:41:17;;;;;;;;;;;1.60;96.70;;;;;;5052425;28;998;-87
2022/11/22 08:43:59;;;;;;;;;;;1.70;97.30;;;;;;5068001;28;1696;-88
2022/11/22 08:46:30;;;;;;;;;;;1.70;97.00;;;;;;5053982;28;1582;-88
2022/11/22 08:48:58;;;;;;;;;;;1.70;97.00;;;;;;5044390;28;1312;-86
2022/11/22 08:51:27;;;;;;;;;;;1.70;97.10;;;;;;5047289;28;2021;-88
2022/11/22 08:53:54;;;;;;;;;;;1.60;96.90;;;;;;5052970;28;1664;-85
2022/11/22 08:56:22;;;;;;;;;;;1.70;96.90;;;;;;5064436;28;1141;-84
2022/11/22 08:58:50;;;;;;;;;;;1.60;96.90;;;;;;5049300;28;1422;-84
2022/11/22 09:01:20;;;;;;;;;;;1.60;96.80;;;;;;5047065;28;1430;-84
2022/11/22 09:03:48;;;;;;;;;;;1.60;96.90;;;;;;5055158;28;1683;-85
2022/11/22 09:06:19;;;;;;;;;;;1.60;96.80;;;;;;5051516;28;1534;-84
2022/11/22 09:09:09;;;;;;;;;;;1.70;97.10;;;;;;5040834;28;1288;-85
2022/11/22 09:11:57;;;;;;;;;;;1.80;97.00;;;;;;5039044;28;1902;-85
2022/11/22 09:14:24;;;;;;;;;;;1.80;96.80;;;;;;5038895;28;1069;-85
2022/11/22 09:16:52;;;;;;;;;;;1.80;96.80;;;;;;5039354;28;1072;-84
2022/11/22 09:19:20;;;;;;;;;;;1.90;96.80;;;;;;5047573;28;1700;-84
2022/11/22 09:21:47;;;;;;;;;;;1.80;96.70;;;;;;5049053;28;1555;-86
2022/11/22 09:24:17;;;;;;;;;;;1.90;96.50;;;;;;5052317;28;1056;-85
2022/11/22 09:26:52;;;;;;;;;;;2.00;96.70;;;;;;5044148;28;1037;-84
2022/11/22 09:29:19;;;;;;;;;;;2.00;96.90;;;;;;5044395;28;1689;-83
2022/11/22 09:31:48;;;;;;;;;;;1.90;96.50;;;;;;5044676;28;1890;-85
2022/11/22 09:34:15;;;;;;;;;;;2.00;96.40;;;;;;5050385;28;1551;-85
2022/11/22 09:36:43;;;;;;;;;;;1.90;96.50;;;;;;5044939;28;1093;-83
2022/11/22 09:39:11;;;;;;;;;;;1.90;96.50;;;;;;5048191;28;1530;-84
2022/11/22 09:41:46;;;;;;;;;;;2.00;96.60;;;;;;5047708;28;1060;-85
2022/11/22 09:44:18;;;;;;;;;;;1.90;97.10;;;;;;5038352;28;1677;-85
2022/11/22 09:46:49;;;;;;;;;;;2.10;96.80;;;;;;5045453;28;2027;-86
2022/11/22 09:49:35;;;;;;;;;;;2.00;96.70;;;;;;5047471;28;1351;-85
2022/11/22 09:52:06;;;;;;;;;;;2.00;97.20;;;;;;5038861;28;1976;-84
2022/11/22 09:54:39;;;;;;;;;;;2.10;96.70;;;;;;5050112;28;981;-85
2022/11/22 09:57:13;;;;;;;;;;;2.10;96.90;;;;;;5038926;28;1517;-86
2022/11/22 09:59:44;;;;;;;;;;;2.30;96.80;;;;;;5046524;28;1877;-85
2022/11/22 10:02:14;;;;;;;;;;;2.20;96.90;;;;;;5054568;28;1568;-86
2022/11/22 10:04:49;;;;;;;;;;;2.20;96.80;;;;;;5058226;28;1005;-84
2022/11/22 10:07:19;;;;;;;;;;;2.20;96.70;;;;;;5045959;28;1496;-85
2022/11/22 10:09:50;;;;;;;;;;;2.40;97.10;;;;;;5051453;28;1281;-86
2022/11/22 10:12:23;;;;;;;;;;;2.20;96.90;;;;;;5052268;28;1878;-85
2022/11/22 10:14:54;;;;;;;;;;;2.30;96.90;;;;;;5049994;28;1870;-86
2022/11/22 10:17:28;;;;;;;;;;;2.30;96.90;;;;;;5051157;28;1995;-84
2022/11/22 10:20:04;;;;;;;;;;;2.40;97.20;;;;;;5047609;28;1519;-84
2022/11/22 10:22:33;;;;;;;;;;;2.40;97.40;;;;;;5055764;28;1726;-86
2022/11/22 10:25:13;;;;;;;;;;;2.40;97.10;;;;;;5055857;28;1032;-85
2022/11/22 10:27:42;;;;;;;;;;;2.70;97.50;;;;;;5050626;28;1849;-84
2022/11/22 10:30:14;;;;;;;;;;;2.70;97.20;;;;;;5052859;28;1604;-84
2022/11/22 10:32:47;;;;;;;;;;;2.40;97.00;;;;;;5048647;28;1910;-84
2022/11/22 10:35:30;;;;;;;;;;;2.40;97.10;;;;;;5039935;28;1589;-82
2022/11/22 10:38:02;;;;;;;;;;;2.50;97.70;;;;;;5049064;28;1251;-82
2022/11/22 10:40:35;;;;;;;;;;;2.50;97.60;;;;;;5038912;28;1016;-82
2022/11/22 10:43:14;;;;;;;;;;;2.60;97.30;;;;;;5044644;28;994;-82
2022/11/22 10:45:43;;;;;;;;;;;2.50;97.70;;;;;;5054149;28;1530;-83
2022/11/22 10:48:16;;;;;;;;;;;2.40;97.70;;;;;;5051643;28;1667;-81
2022/11/22 10:50:50;;;;;;;;;;;2.50;97.70;;;;;;5053228;28;1680;-84
2022/11/22 10:53:27;;;;;;;;;;;2.50;97.80;;;;;;5050469;28;1977;-84
2022/11/22 10:55:58;;;;;;;;;;;2.50;97.50;;;;;;5041466;28;1656;-84
2022/11/22 10:58:31;;;;;;;;;;;2.50;97.30;;;;;;5049028;28;1375;-83
2022/11/22 11:01:05;;;;;;;;;;;2.60;97.70;;;;;;5050606;28;982;-85
2022/11/22 11:03:35;;;;;;;;;;;2.70;97.30;;;;;;5053733;28;1526;-84
2022/11/22 11:06:07;;;;;;;;;;;2.70;97.20;;;;;;5054541;28;1508;-84
2022/11/22 11:08:57;;;;;;;;;;;2.60;97.20;;;;;;5056695;28;1752;-85
2022/11/22 11:11:46;;;;;;;;;;;2.60;96.80;;;;;;5050190;28;1150;-83
2022/11/22 11:14:23;;;;;;;;;;;2.50;97.00;;;;;;5073830;28;1918;-84
2022/11/22 11:16:51;;;;;;;;;;;2.70;97.30;;;;;;5048895;28;1030;-85
2022/11/22 11:19:23;;;;;;;;;;;2.70;97.30;;;;;;5046651;28;1388;-85
2022/11/22 11:21:55;;;;;;;;;;;2.80;97.20;;;;;;5040272;28;1041;-83
2022/11/22 11:24:23;;;;;;;;;;;2.80;97.30;;;;;;5039001;28;1012;-83
2022/11/22 11:26:52;;;;;;;;;;;2.80;96.70;;;;;;5038569;28;1044;-83
2022/11/22 11:29:30;;;;;;;;;;;2.80;97.20;;;;;;5039340;28;1492;-82
2022/11/22 11:32:07;;;;;;;;;;;2.70;96.90;;;;;;5054071;28;1033;-88
2022/11/22 11:34:35;;;;;;;;;;;2.90;97.10;;;;;;5042787;28;1942;-87
2022/11/22 11:37:10;;;;;;;;;;;3.10;97.10;;;;;;5042735;28;1017;-87
2022/11/22 11:39:37;;;;;;;;;;;3.00;96.50;;;;;;5046948;28;1527;-86
2022/11/22 11:42:22;;;;;;;;;;;3.00;96.50;;;;;;5041641;28;1272;-88
2022/11/22 11:44:54;;;;;;;;;;;3.00;96.90;;;;;;5040339;28;1316;-88
2022/11/22 11:47:31;;;;;;;;;;;3.10;97.00;;;;;;5040844;28;1020;-88
2022/11/22 11:49:59;;;;;;;;;;;3.00;96.90;;;;;;5050422;28;1257;-87
2022/11/22 11:52:34;;;;;;;;;;;3.10;96.50;;;;;;5050319;28;1882;-87
2022/11/22 11:55:16;;;;;;;;;;;3.20;96.70;;;;;;5056181;28;2024;-88
2022/11/22 11:57:44;;;;;;;;;;;3.30;96.50;;;;;;5051397;28;1036;-88
2022/11/22 12:00:23;;;;;;;;;;;3.60;96.50;;;;;;5048219;28;1357;-88
2022/11/22 12:03:00;;;;;;;;;;;3.50;96.40;;;;;;5042763;28;1001;-86
2022/11/22 12:05:32;;;;;;;;;;;3.40;96.10;;;;;;5039108;28;1381;-87
2022/11/22 12:08:00;;;;;;;;;;;3.50;95.90;;;;;;5039769;28;1709;-87
2022/11/22 12:10:38;;;;;;;;;;;3.40;96.40;;;;;;5040156;28;1113;-87
2022/11/22 12:13:11;;;;;;;;;;;3.40;96.30;;;;;;5040699;28;2000;-88
2022/11/22 12:15:46;;;;;;;;;;;3.40;96.30;;;;;;5038968;28;1512;-87
2022/11/22 12:18:24;;;;;;;;;;;3.40;96.50;;;;;;5050277;28;1665;-87
2022/11/22 12:21:01;;;;;;;;;;;3.50;96.60;;;;;;5054911;28;1510;-87
2022/11/22 12:23:32;;;;;;;;;;;3.70;96.40;;;;;;5075140;28;1123;-87
2022/11/22 12:26:00;;;;;;;;;;;3.40;96.30;;;;;;5058339;28;978;-87
2022/11/22 12:28:35;;;;;;;;;;;3.50;95.90;;;;;;5056181;28;1479;-87
2022/11/22 12:31:08;;;;;;;;;;;3.40;96.10;;;;;;5055691;28;1397;-86
2022/11/22 12:33:42;;;;;;;;;;;3.00;95.80;;;;;;5054739;28;1999;-85
2022/11/22 12:36:16;;;;;;;;;;;3.00;96.30;;;;;;5051955;28;1077;-86
2022/11/22 12:38:53;;;;;;;;;;;3.30;96.30;;;;;;5044637;28;1705;-87
2022/11/22 12:41:29;;;;;;;;;;;3.10;95.50;;;;;;5049460;28;1035;-85
2022/11/22 12:43:58;;;;;;;;;;;3.50;96.40;;;;;;5040711;28;1497;-83
2022/11/22 12:46:33;;;;;;;;;;;3.40;95.80;;;;;;5052319;28;1072;-85
2022/11/22 12:49:11;;;;;;;;;;;3.60;96.00;;;;;;5039746;28;1325;-84
2022/11/22 12:51:44;;;;;;;;;;;3.60;95.50;;;;;;5038001;28;1092;-85
2022/11/22 12:54:13;;;;;;;;;;;3.60;95.60;;;;;;5038577;28;1902;-83
2022/11/22 12:56:44;;;;;;;;;;;3.70;96.00;;;;;;5037029;28;1073;-86
2022/11/22 12:59:18;;;;;;;;;;;3.50;96.10;;;;;;5050290;28;1539;-86
2022/11/22 13:01:50;;;;;;;;;;;3.80;95.80;;;;;;5048333;28;2028;-87
2022/11/22 13:04:22;;;;;;;;;;;3.40;95.70;;;;;;5051203;28;1616;-85
2022/11/22 13:06:55;;;;;;;;;;;3.40;96.00;;;;;;5043065;28;1025;-85
2022/11/22 13:09:30;;;;;;;;;;;3.40;96.20;;;;;;5047096;28;1393;-85
2022/11/22 13:12:00;;;;;;;;;;;3.30;95.90;;;;;;5052801;28;1482;-88
2022/11/22 13:14:30;;;;;;;;;;;3.20;95.60;;;;;;5050681;28;1891;-87
2022/11/22 13:17:07;;;;;;;;;;;3.30;95.90;;;;;;5055619;28;1408;-86
2022/11/22 13:19:40;;;;;;;;;;;3.30;95.90;;;;;;5057817;28;1557;-88
2022/11/22 13:25:29;;;;;;;;;;;3.40;95.60;;;;;;5033161;28;1382;-85
2022/11/22 13:28:05;;;;;;;;;;;3.40;95.70;;;;;;5049844;28;1525;-86
2022/11/22 13:30:38;;;;;;;;;;;3.60;95.80;;;;;;5053021;28;1836;-86
2022/11/22 13:33:24;;;;;;;;;;;3.40;96.30;;;;;;5061232;28;1381;-89
2022/11/22 13:36:11;;;;;;;;;;;3.40;96.00;;;;;;5047775;28;1468;-86
2022/11/22 13:38:44;;;;;;;;;;;3.30;95.70;;;;;;5048526;28;1502;-86
2022/11/22 13:41:23;;;;;;;;;;;3.40;96.10;;;;;;5053143;28;997;-87
2022/11/22 13:43:58;;;;;;;;;;;3.70;96.10;;;;;;5037338;28;1885;-86
2022/11/22 13:46:55;;;;;;;;;;;3.50;95.80;;;;;;5038896;28;1720;-86
2022/11/22 13:49:34;;;;;;;;;;;3.50;96.10;;;;;;5037893;28;1260;-87
2022/11/22 13:52:54;;;;;;;;;;;3.50;95.90;;;;;;5046162;28;1479;-86
2022/11/22 13:55:27;;;;;;;;;;;3.60;95.80;;;;;;5048032;28;1918;-85
2022/11/22 13:57:58;;;;;;;;;;;3.50;95.60;;;;;;5042224;28;1504;-85
2022/11/22 14:00:49;;;;;;;;;;;3.50;95.20;;;;;;5051689;28;1077;-86
2022/11/22 14:03:39;;;;;;;;;;;3.50;95.60;;;;;;5044654;28;1638;-87
2022/11/22 14:06:23;;;;;;;;;;;3.50;96.00;;;;;;5052781;28;1560;-84
2022/11/22 14:09:18;;;;;;;;;;;3.60;95.90;;;;;;5050373;28;1479;-86
2022/11/22 14:12:08;;;;;;;;;;;3.60;96.00;;;;;;4978803;28;1159;-87
2022/11/22 14:14:46;;;;;;;;;;;3.70;95.80;;;;;;4998161;28;1985;-85
2022/11/22 14:17:25;;;;;;;;;;;3.60;95.40;;;;;;5049297;28;1436;-86
2022/11/22 14:20:00;;;;;;;;;;;3.60;95.40;;;;;;5050257;28;1382;-85
2022/11/22 14:22:49;;;;;;;;;;;3.50;96.00;;;;;;5052998;28;1495;-83
2022/11/22 14:25:29;;;;;;;;;;;3.60;95.90;;;;;;5059863;28;1098;-86
2022/11/22 14:28:08;;;;;;;;;;;3.70;95.80;;;;;;5055786;28;1399;-86
2022/11/22 14:30:40;;;;;;;;;;;3.60;95.60;;;;;;5047345;28;1366;-86
2022/11/22 14:33:14;;;;;;;;;;;3.40;95.70;;;;;;5055662;28;1662;-86
2022/11/22 14:36:07;;;;;;;;;;;3.40;96.20;;;;;;5056411;28;2019;-88
2022/11/22 14:38:41;;;;;;;;;;;3.50;96.00;;;;;;5055440;28;1412;-85
2022/11/22 14:41:31;;;;;;;;;;;3.70;95.80;;;;;;5065484;28;1093;-86
2022/11/22 14:44:00;;;;;;;;;;;3.40;95.90;;;;;;5055923;28;1551;-89
2022/11/22 14:46:36;;;;;;;;;;;3.50;96.10;;;;;;5066166;28;1139;-86
2022/11/22 14:49:36;;;;;;;;;;;3.50;96.30;;;;;;5057393;28;1310;-86
2022/11/22 14:52:05;;;;;;;;;;;3.40;96.30;;;;;;5051267;28;1696;-87
2022/11/22 14:54:45;;;;;;;;;;;3.30;96.00;;;;;;5050059;28;1991;-87
2022/11/22 14:57:20;;;;;;;;;;;3.30;96.20;;;;;;5053292;28;1511;-86
2022/11/22 15:00:04;;;;;;;;;;;3.40;96.30;;;;;;5042571;28;1514;-86
2022/11/22 15:02:58;;;;;;;;;;;3.40;96.00;;;;;;5042427;28;1361;-87
2022/11/22 15:05:30;;;;;;;;;;;3.40;96.00;;;;;;5042044;28;1388;-86
2022/11/22 15:08:22;;;;;;;;;;;3.20;95.90;;;;;;5056599;28;1865;-87
2022/11/22 15:11:18;;;;;;;;;;;3.20;96.60;;;;;;5054314;28;1222;-85
2022/11/22 15:13:51;;;;;;;;;;;3.50;96.90;;;;;;5051976;28;1124;-86
2022/11/22 15:16:21;;;;;;;;;;;3.10;96.40;;;;;;5051641;28;1961;-87
2022/11/22 15:19:30;;;;;;;;;;;3.20;96.40;;;;;;5045176;28;1774;-87
2022/11/22 15:22:22;;;;;;;;;;;3.20;96.70;;;;;;5052633;28;1182;-88
2022/11/22 15:25:15;;;;;;;;;;;3.20;96.30;;;;;;5050689;28;1125;-87
2022/11/22 15:28:04;;;;;;;;;;;3.20;96.30;;;;;;5051860;28;1359;-88
2022/11/22 15:30:53;;;;;;;;;;;3.20;96.10;;;;;;5045416;28;928;-87